Teaticket, Massachusetts
Current Conditions -  °F | °C
As of 9:35 PM on Thursday 20 Nov 2014 (Local Time) from KFMH Reporting Station
Few Clouds Few Clouds  
Wind Chill: 32°   Ceiling: Unl
Heat Index: 39°   Visibility: 10mi
Dew Point: 19°   Wind: 13mph
Humidity: 45%   Direction: 280°W
Pressure: 29.87"   Gusts: NA
Location:  41.6005°N, 70.5664°W
Report Text: KFMH 210235Z AUTO 28011KT 10SM FEW070 04/M07 A2987 RMK AO2
Loading
Personal Weather Stations






























Interactive Weather Map New forecast layout! Learn more

10-Day Weather Forecast

Advertisements
Track Severe Weather on mobile